sensor_id;sensor_type;location;lat;lon;timestamp;P1;durP1;ratioP1;P2;durP2;ratioP2
79284;SDS011;68734;50.452;11.636;2023-09-30T00:01:44;27.35;;;10.05;;
79284;SDS011;68734;50.452;11.636;2023-09-30T00:04:10;27.10;;;10.82;;
79284;SDS011;68734;50.452;11.636;2023-09-30T00:06:35;29.75;;;11.38;;
79284;SDS011;68734;50.452;11.636;2023-09-30T00:09:01;31.30;;;10.38;;
79284;SDS011;68734;50.452;11.636;2023-09-30T00:11:27;25.38;;;9.60;;
79284;SDS011;68734;50.452;11.636;2023-09-30T00:13:52;26.70;;;9.63;;
79284;SDS011;68734;50.452;11.636;2023-09-30T00:16:18;21.42;;;8.60;;
79284;SDS011;68734;50.452;11.636;2023-09-30T00:18:43;14.57;;;6.90;;
79284;SDS011;68734;50.452;11.636;2023-09-30T00:21:09;19.88;;;6.60;;
79284;SDS011;68734;50.452;11.636;2023-09-30T00:23:36;7.57;;;3.58;;
79284;SDS011;68734;50.452;11.636;2023-09-30T00:26:01;9.20;;;3.70;;
79284;SDS011;68734;50.452;11.636;2023-09-30T00:28:27;7.30;;;3.05;;
79284;SDS011;68734;50.452;11.636;2023-09-30T00:30:53;7.30;;;2.55;;
79284;SDS011;68734;50.452;11.636;2023-09-30T00:33:19;4.38;;;2.13;;
79284;SDS011;68734;50.452;11.636;2023-09-30T00:35:44;2.97;;;1.80;;
79284;SDS011;68734;50.452;11.636;2023-09-30T00:38:10;4.53;;;2.20;;
79284;SDS011;68734;50.452;11.636;2023-09-30T00:40:35;3.40;;;1.85;;
79284;SDS011;68734;50.452;11.636;2023-09-30T00:43:01;5.93;;;2.47;;
79284;SDS011;68734;50.452;11.636;2023-09-30T00:45:27;4.57;;;2.17;;
79284;SDS011;68734;50.452;11.636;2023-09-30T00:47:53;4.97;;;3.13;;
79284;SDS011;68734;50.452;11.636;2023-09-30T00:50:21;10.80;;;2.75;;
79284;SDS011;68734;50.452;11.636;2023-09-30T00:52:48;6.90;;;3.00;;
79284;SDS011;68734;50.452;11.636;2023-09-30T00:55:15;7.90;;;3.25;;
79284;SDS011;68734;50.452;11.636;2023-09-30T00:57:41;6.32;;;3.15;;
79284;SDS011;68734;50.452;11.636;2023-09-30T01:00:07;7.28;;;3.80;;
79284;SDS011;68734;50.452;11.636;2023-09-30T01:02:38;10.15;;;3.83;;
79284;SDS011;68734;50.452;11.636;2023-09-30T01:05:04;6.72;;;3.90;;
79284;SDS011;68734;50.452;11.636;2023-09-30T01:07:33;6.55;;;3.42;;
79284;SDS011;68734;50.452;11.636;2023-09-30T01:09:59;9.95;;;3.72;;
79284;SDS011;68734;50.452;11.636;2023-09-30T01:12:24;7.00;;;3.30;;
79284;SDS011;68734;50.452;11.636;2023-09-30T01:14:56;10.45;;;3.38;;
79284;SDS011;68734;50.452;11.636;2023-09-30T01:17:22;8.10;;;3.83;;
79284;SDS011;68734;50.452;11.636;2023-09-30T01:19:48;5.65;;;3.20;;
79284;SDS011;68734;50.452;11.636;2023-09-30T01:22:14;6.90;;;3.00;;
79284;SDS011;68734;50.452;11.636;2023-09-30T01:24:41;6.93;;;3.33;;
79284;SDS011;68734;50.452;11.636;2023-09-30T01:27:08;8.45;;;3.55;;
79284;SDS011;68734;50.452;11.636;2023-09-30T01:29:34;5.45;;;2.92;;
79284;SDS011;68734;50.452;11.636;2023-09-30T01:32:00;4.22;;;2.40;;
79284;SDS011;68734;50.452;11.636;2023-09-30T01:34:28;7.35;;;3.00;;
79284;SDS011;68734;50.452;11.636;2023-09-30T01:36:54;6.97;;;3.95;;
79284;SDS011;68734;50.452;11.636;2023-09-30T01:39:19;8.00;;;3.45;;
79284;SDS011;68734;50.452;11.636;2023-09-30T01:41:45;6.97;;;3.13;;
79284;SDS011;68734;50.452;11.636;2023-09-30T01:44:10;5.65;;;3.15;;
79284;SDS011;68734;50.452;11.636;2023-09-30T01:46:36;5.15;;;2.25;;
79284;SDS011;68734;50.452;11.636;2023-09-30T01:49:01;7.95;;;2.70;;
79284;SDS011;68734;50.452;11.636;2023-09-30T01:51:29;5.32;;;3.13;;
79284;SDS011;68734;50.452;11.636;2023-09-30T01:53:54;7.40;;;2.50;;
79284;SDS011;68734;50.452;11.636;2023-09-30T01:56:20;6.75;;;2.38;;
79284;SDS011;68734;50.452;11.636;2023-09-30T01:58:46;6.95;;;2.80;;
79284;SDS011;68734;50.452;11.636;2023-09-30T02:01:11;4.82;;;3.00;;
79284;SDS011;68734;50.452;11.636;2023-09-30T02:03:37;5.97;;;2.80;;
79284;SDS011;68734;50.452;11.636;2023-09-30T02:06:03;6.60;;;2.92;;
79284;SDS011;68734;50.452;11.636;2023-09-30T02:08:31;5.40;;;2.72;;
79284;SDS011;68734;50.452;11.636;2023-09-30T02:10:56;6.43;;;3.38;;
79284;SDS011;68734;50.452;11.636;2023-09-30T02:13:22;19.70;;;3.45;;
79284;SDS011;68734;50.452;11.636;2023-09-30T02:15:47;6.00;;;2.90;;
79284;SDS011;68734;50.452;11.636;2023-09-30T02:18:13;7.75;;;2.65;;
79284;SDS011;68734;50.452;11.636;2023-09-30T02:20:39;7.38;;;2.65;;
79284;SDS011;68734;50.452;11.636;2023-09-30T02:23:11;6.20;;;2.88;;
79284;SDS011;68734;50.452;11.636;2023-09-30T02:25:38;9.80;;;4.10;;
79284;SDS011;68734;50.452;11.636;2023-09-30T02:28:04;5.78;;;2.65;;
79284;SDS011;68734;50.452;11.636;2023-09-30T02:30:31;5.80;;;2.17;;
79284;SDS011;68734;50.452;11.636;2023-09-30T02:32:56;4.38;;;2.40;;
79284;SDS011;68734;50.452;11.636;2023-09-30T02:35:22;6.05;;;2.65;;
79284;SDS011;68734;50.452;11.636;2023-09-30T02:37:48;4.05;;;2.83;;
79284;SDS011;68734;50.452;11.636;2023-09-30T02:40:16;6.45;;;3.92;;
79284;SDS011;68734;50.452;11.636;2023-09-30T02:42:42;6.50;;;3.65;;
79284;SDS011;68734;50.452;11.636;2023-09-30T02:45:08;5.18;;;2.58;;
79284;SDS011;68734;50.452;11.636;2023-09-30T02:47:35;7.40;;;2.80;;
79284;SDS011;68734;50.452;11.636;2023-09-30T02:50:02;8.10;;;3.05;;
79284;SDS011;68734;50.452;11.636;2023-09-30T02:52:29;5.65;;;3.33;;
79284;SDS011;68734;50.452;11.636;2023-09-30T02:54:55;6.07;;;2.42;;
79284;SDS011;68734;50.452;11.636;2023-09-30T02:57:22;4.07;;;2.20;;
79284;SDS011;68734;50.452;11.636;2023-09-30T02:59:52;6.65;;;2.42;;
79284;SDS011;68734;50.452;11.636;2023-09-30T03:02:19;4.50;;;2.22;;
79284;SDS011;68734;50.452;11.636;2023-09-30T03:04:46;6.03;;;2.85;;
79284;SDS011;68734;50.452;11.636;2023-09-30T03:07:15;8.25;;;3.03;;
79284;SDS011;68734;50.452;11.636;2023-09-30T03:09:41;11.02;;;2.70;;
79284;SDS011;68734;50.452;11.636;2023-09-30T03:12:07;5.53;;;3.05;;
79284;SDS011;68734;50.452;11.636;2023-09-30T03:14:33;5.03;;;2.83;;
79284;SDS011;68734;50.452;11.636;2023-09-30T03:16:59;6.90;;;2.72;;
79284;SDS011;68734;50.452;11.636;2023-09-30T03:19:25;14.27;;;2.97;;
79284;SDS011;68734;50.452;11.636;2023-09-30T03:21:50;11.43;;;2.75;;
79284;SDS011;68734;50.452;11.636;2023-09-30T03:24:16;6.35;;;2.58;;
79284;SDS011;68734;50.452;11.636;2023-09-30T03:26:41;5.68;;;2.53;;
79284;SDS011;68734;50.452;11.636;2023-09-30T03:29:07;7.47;;;2.63;;
79284;SDS011;68734;50.452;11.636;2023-09-30T03:31:34;6.35;;;2.25;;
79284;SDS011;68734;50.452;11.636;2023-09-30T03:34:00;6.75;;;2.70;;
79284;SDS011;68734;50.452;11.636;2023-09-30T03:36:26;3.08;;;2.03;;
79284;SDS011;68734;50.452;11.636;2023-09-30T03:38:54;10.38;;;3.20;;
79284;SDS011;68734;50.452;11.636;2023-09-30T03:41:24;10.65;;;2.55;;
79284;SDS011;68734;50.452;11.636;2023-09-30T03:43:53;9.13;;;3.00;;
79284;SDS011;68734;50.452;11.636;2023-09-30T03:46:18;10.40;;;3.67;;
79284;SDS011;68734;50.452;11.636;2023-09-30T03:48:45;5.00;;;2.88;;
79284;SDS011;68734;50.452;11.636;2023-09-30T03:51:12;5.60;;;2.58;;
79284;SDS011;68734;50.452;11.636;2023-09-30T03:56:09;7.22;;;2.42;;
79284;SDS011;68734;50.452;11.636;2023-09-30T03:58:41;10.50;;;3.15;;
79284;SDS011;68734;50.452;11.636;2023-09-30T04:01:08;10.55;;;3.05;;
79284;SDS011;68734;50.452;11.636;2023-09-30T04:03:36;6.38;;;2.40;;
79284;SDS011;68734;50.452;11.636;2023-09-30T04:06:04;6.68;;;2.28;;
79284;SDS011;68734;50.452;11.636;2023-09-30T04:08:32;9.00;;;2.70;;
79284;SDS011;68734;50.452;11.636;2023-09-30T04:10:59;8.23;;;3.53;;
79284;SDS011;68734;50.452;11.636;2023-09-30T04:13:25;5.63;;;2.33;;
79284;SDS011;68734;50.452;11.636;2023-09-30T04:15:51;6.72;;;2.40;;
79284;SDS011;68734;50.452;11.636;2023-09-30T04:18:19;8.30;;;2.10;;
79284;SDS011;68734;50.452;11.636;2023-09-30T04:20:47;8.00;;;2.75;;
79284;SDS011;68734;50.452;11.636;2023-09-30T04:23:13;4.93;;;2.45;;
79284;SDS011;68734;50.452;11.636;2023-09-30T04:25:38;6.45;;;2.55;;
79284;SDS011;68734;50.452;11.636;2023-09-30T04:28:05;7.53;;;3.03;;
79284;SDS011;68734;50.452;11.636;2023-09-30T04:30:32;6.72;;;2.15;;
79284;SDS011;68734;50.452;11.636;2023-09-30T04:32:58;5.35;;;2.03;;
79284;SDS011;68734;50.452;11.636;2023-09-30T04:35:24;3.42;;;2.45;;
79284;SDS011;68734;50.452;11.636;2023-09-30T04:37:50;7.00;;;2.65;;
79284;SDS011;68734;50.452;11.636;2023-09-30T04:40:16;6.18;;;2.67;;
79284;SDS011;68734;50.452;11.636;2023-09-30T04:42:45;5.18;;;2.53;;
79284;SDS011;68734;50.452;11.636;2023-09-30T04:45:12;6.60;;;2.75;;
79284;SDS011;68734;50.452;11.636;2023-09-30T04:47:41;9.50;;;2.88;;
79284;SDS011;68734;50.452;11.636;2023-09-30T04:50:09;4.88;;;2.92;;
79284;SDS011;68734;50.452;11.636;2023-09-30T04:52:36;3.65;;;2.30;;
79284;SDS011;68734;50.452;11.636;2023-09-30T04:55:04;8.40;;;3.17;;
79284;SDS011;68734;50.452;11.636;2023-09-30T04:57:30;7.45;;;3.25;;
79284;SDS011;68734;50.452;11.636;2023-09-30T04:59:56;6.65;;;3.00;;
79284;SDS011;68734;50.452;11.636;2023-09-30T05:02:23;13.93;;;3.58;;
79284;SDS011;68734;50.452;11.636;2023-09-30T05:04:48;7.95;;;2.92;;
79284;SDS011;68734;50.452;11.636;2023-09-30T05:07:14;8.10;;;2.55;;
79284;SDS011;68734;50.452;11.636;2023-09-30T05:09:40;7.68;;;2.63;;
79284;SDS011;68734;50.452;11.636;2023-09-30T05:12:06;11.15;;;2.70;;
79284;SDS011;68734;50.452;11.636;2023-09-30T05:14:35;7.03;;;2.75;;
79284;SDS011;68734;50.452;11.636;2023-09-30T05:17:01;3.88;;;2.47;;
79284;SDS011;68734;50.452;11.636;2023-09-30T05:19:29;6.78;;;2.30;;
79284;SDS011;68734;50.452;11.636;2023-09-30T05:21:57;9.77;;;3.63;;
79284;SDS011;68734;50.452;11.636;2023-09-30T05:24:27;5.80;;;3.30;;
79284;SDS011;68734;50.452;11.636;2023-09-30T05:26:56;6.93;;;2.90;;
79284;SDS011;68734;50.452;11.636;2023-09-30T05:29:22;4.97;;;2.33;;
79284;SDS011;68734;50.452;11.636;2023-09-30T05:31:48;6.75;;;3.05;;
79284;SDS011;68734;50.452;11.636;2023-09-30T05:34:13;4.72;;;2.80;;
79284;SDS011;68734;50.452;11.636;2023-09-30T05:36:42;3.83;;;2.50;;
79284;SDS011;68734;50.452;11.636;2023-09-30T05:39:08;5.15;;;2.90;;
79284;SDS011;68734;50.452;11.636;2023-09-30T05:41:35;4.43;;;2.80;;
79284;SDS011;68734;50.452;11.636;2023-09-30T05:44:02;12.63;;;3.85;;
79284;SDS011;68734;50.452;11.636;2023-09-30T05:46:30;5.50;;;3.30;;
79284;SDS011;68734;50.452;11.636;2023-09-30T05:48:55;7.05;;;2.80;;
79284;SDS011;68734;50.452;11.636;2023-09-30T05:51:21;5.28;;;2.55;;
79284;SDS011;68734;50.452;11.636;2023-09-30T05:53:46;8.73;;;3.40;;
79284;SDS011;68734;50.452;11.636;2023-09-30T05:56:15;10.23;;;2.90;;
79284;SDS011;68734;50.452;11.636;2023-09-30T05:58:41;8.88;;;4.25;;
79284;SDS011;68734;50.452;11.636;2023-09-30T06:01:08;7.00;;;3.20;;
79284;SDS011;68734;50.452;11.636;2023-09-30T06:03:37;4.53;;;2.75;;
79284;SDS011;68734;50.452;11.636;2023-09-30T06:06:12;7.15;;;4.72;;
79284;SDS011;68734;50.452;11.636;2023-09-30T06:08:40;6.88;;;2.70;;
79284;SDS011;68734;50.452;11.636;2023-09-30T06:11:07;5.07;;;2.92;;
79284;SDS011;68734;50.452;11.636;2023-09-30T06:13:40;10.20;;;3.53;;
79284;SDS011;68734;50.452;11.636;2023-09-30T06:16:06;4.95;;;2.92;;
79284;SDS011;68734;50.452;11.636;2023-09-30T06:18:36;11.30;;;2.80;;
79284;SDS011;68734;50.452;11.636;2023-09-30T06:21:01;9.40;;;3.63;;
79284;SDS011;68734;50.452;11.636;2023-09-30T06:23:29;8.32;;;2.38;;
79284;SDS011;68734;50.452;11.636;2023-09-30T06:25:55;6.72;;;3.00;;
79284;SDS011;68734;50.452;11.636;2023-09-30T06:28:21;8.90;;;2.92;;
79284;SDS011;68734;50.452;11.636;2023-09-30T06:30:51;7.90;;;3.72;;
79284;SDS011;68734;50.452;11.636;2023-09-30T06:33:17;6.68;;;2.67;;
79284;SDS011;68734;50.452;11.636;2023-09-30T06:35:42;9.38;;;3.10;;
79284;SDS011;68734;50.452;11.636;2023-09-30T06:38:19;6.20;;;3.22;;
79284;SDS011;68734;50.452;11.636;2023-09-30T06:41:16;5.43;;;2.85;;
79284;SDS011;68734;50.452;11.636;2023-09-30T06:43:42;6.60;;;3.13;;
79284;SDS011;68734;50.452;11.636;2023-09-30T06:46:08;8.05;;;3.53;;
79284;SDS011;68734;50.452;11.636;2023-09-30T06:48:34;12.23;;;3.85;;
79284;SDS011;68734;50.452;11.636;2023-09-30T06:51:05;8.00;;;2.78;;
79284;SDS011;68734;50.452;11.636;2023-09-30T06:53:39;11.02;;;3.33;;
79284;SDS011;68734;50.452;11.636;2023-09-30T06:56:05;10.43;;;2.83;;
79284;SDS011;68734;50.452;11.636;2023-09-30T06:58:31;9.18;;;3.55;;
79284;SDS011;68734;50.452;11.636;2023-09-30T07:00:56;14.63;;;3.22;;
79284;SDS011;68734;50.452;11.636;2023-09-30T07:03:22;5.53;;;2.88;;
79284;SDS011;68734;50.452;11.636;2023-09-30T07:05:47;8.23;;;3.58;;
79284;SDS011;68734;50.452;11.636;2023-09-30T07:08:17;8.95;;;2.97;;
79284;SDS011;68734;50.452;11.636;2023-09-30T07:10:46;10.02;;;3.45;;
79284;SDS011;68734;50.452;11.636;2023-09-30T07:13:14;9.15;;;3.05;;
79284;SDS011;68734;50.452;11.636;2023-09-30T07:15:40;7.50;;;3.30;;
79284;SDS011;68734;50.452;11.636;2023-09-30T07:18:05;7.72;;;2.63;;
79284;SDS011;68734;50.452;11.636;2023-09-30T07:20:31;9.88;;;3.47;;
79284;SDS011;68734;50.452;11.636;2023-09-30T07:22:58;9.23;;;3.17;;
79284;SDS011;68734;50.452;11.636;2023-09-30T07:25:24;6.82;;;2.90;;
79284;SDS011;68734;50.452;11.636;2023-09-30T07:27:50;8.48;;;2.90;;
79284;SDS011;68734;50.452;11.636;2023-09-30T07:30:15;6.90;;;2.85;;
79284;SDS011;68734;50.452;11.636;2023-09-30T07:32:41;5.68;;;2.40;;
79284;SDS011;68734;50.452;11.636;2023-09-30T07:37:41;6.15;;;2.88;;
79284;SDS011;68734;50.452;11.636;2023-09-30T07:40:09;5.93;;;2.78;;
79284;SDS011;68734;50.452;11.636;2023-09-30T07:42:38;4.93;;;2.85;;
79284;SDS011;68734;50.452;11.636;2023-09-30T07:45:03;5.18;;;2.45;;
79284;SDS011;68734;50.452;11.636;2023-09-30T07:47:29;5.57;;;2.15;;
79284;SDS011;68734;50.452;11.636;2023-09-30T07:50:01;4.70;;;2.22;;
79284;SDS011;68734;50.452;11.636;2023-09-30T07:52:31;4.88;;;2.35;;
79284;SDS011;68734;50.452;11.636;2023-09-30T07:54:57;5.57;;;2.42;;
79284;SDS011;68734;50.452;11.636;2023-09-30T07:57:22;5.32;;;2.40;;
79284;SDS011;68734;50.452;11.636;2023-09-30T07:59:48;5.03;;;2.42;;
79284;SDS011;68734;50.452;11.636;2023-09-30T08:02:14;8.65;;;2.72;;
79284;SDS011;68734;50.452;11.636;2023-09-30T08:04:42;4.72;;;2.45;;
79284;SDS011;68734;50.452;11.636;2023-09-30T08:07:16;8.07;;;2.10;;
79284;SDS011;68734;50.452;11.636;2023-09-30T08:09:48;12.43;;;3.33;;
79284;SDS011;68734;50.452;11.636;2023-09-30T08:12:13;9.60;;;2.70;;
79284;SDS011;68734;50.452;11.636;2023-09-30T08:14:39;3.25;;;1.77;;
79284;SDS011;68734;50.452;11.636;2023-09-30T08:17:09;6.60;;;2.92;;
79284;SDS011;68734;50.452;11.636;2023-09-30T08:19:35;6.97;;;2.05;;
79284;SDS011;68734;50.452;11.636;2023-09-30T08:22:01;6.32;;;2.00;;
79284;SDS011;68734;50.452;11.636;2023-09-30T08:24:28;5.65;;;1.95;;
79284;SDS011;68734;50.452;11.636;2023-09-30T08:26:54;8.10;;;2.63;;
79284;SDS011;68734;50.452;11.636;2023-09-30T08:29:20;4.72;;;2.35;;
79284;SDS011;68734;50.452;11.636;2023-09-30T08:31:46;6.68;;;2.30;;
79284;SDS011;68734;50.452;11.636;2023-09-30T08:34:12;7.13;;;3.13;;
79284;SDS011;68734;50.452;11.636;2023-09-30T08:36:40;3.60;;;2.15;;
79284;SDS011;68734;50.452;11.636;2023-09-30T08:39:06;4.20;;;2.03;;
79284;SDS011;68734;50.452;11.636;2023-09-30T08:41:32;7.60;;;1.98;;
79284;SDS011;68734;50.452;11.636;2023-09-30T08:43:59;6.43;;;2.25;;
79284;SDS011;68734;50.452;11.636;2023-09-30T08:46:28;7.13;;;1.60;;
79284;SDS011;68734;50.452;11.636;2023-09-30T08:48:57;2.95;;;1.40;;
79284;SDS011;68734;50.452;11.636;2023-09-30T08:51:25;3.58;;;1.42;;
79284;SDS011;68734;50.452;11.636;2023-09-30T08:53:52;4.00;;;1.70;;
79284;SDS011;68734;50.452;11.636;2023-09-30T08:56:22;3.72;;;1.40;;
79284;SDS011;68734;50.452;11.636;2023-09-30T08:58:51;2.17;;;1.52;;
79284;SDS011;68734;50.452;11.636;2023-09-30T09:01:18;3.85;;;1.45;;
79284;SDS011;68734;50.452;11.636;2023-09-30T09:03:44;5.18;;;2.25;;
79284;SDS011;68734;50.452;11.636;2023-09-30T09:06:12;5.47;;;2.33;;
79284;SDS011;68734;50.452;11.636;2023-09-30T09:08:40;2.95;;;1.88;;
79284;SDS011;68734;50.452;11.636;2023-09-30T09:11:06;7.63;;;3.13;;
79284;SDS011;68734;50.452;11.636;2023-09-30T09:13:44;5.43;;;2.67;;
79284;SDS011;68734;50.452;11.636;2023-09-30T09:16:20;4.47;;;3.17;;
79284;SDS011;68734;50.452;11.636;2023-09-30T09:18:46;7.88;;;3.28;;
79284;SDS011;68734;50.452;11.636;2023-09-30T09:21:17;8.35;;;2.20;;
79284;SDS011;68734;50.452;11.636;2023-09-30T09:23:51;5.43;;;2.03;;
79284;SDS011;68734;50.452;11.636;2023-09-30T09:28:50;5.53;;;2.60;;
79284;SDS011;68734;50.452;11.636;2023-09-30T09:31:25;7.60;;;3.05;;
79284;SDS011;68734;50.452;11.636;2023-09-30T09:33:52;6.88;;;3.83;;
79284;SDS011;68734;50.452;11.636;2023-09-30T09:36:18;3.28;;;1.95;;
79284;SDS011;68734;50.452;11.636;2023-09-30T09:38:50;3.65;;;1.77;;
79284;SDS011;68734;50.452;11.636;2023-09-30T09:41:21;4.22;;;2.40;;
79284;SDS011;68734;50.452;11.636;2023-09-30T09:43:49;4.35;;;2.75;;
79284;SDS011;68734;50.452;11.636;2023-09-30T09:46:16;7.22;;;2.58;;
79284;SDS011;68734;50.452;11.636;2023-09-30T09:48:42;3.35;;;2.08;;
79284;SDS011;68734;50.452;11.636;2023-09-30T09:51:12;3.20;;;1.70;;
79284;SDS011;68734;50.452;11.636;2023-09-30T09:53:39;3.78;;;1.77;;
79284;SDS011;68734;50.452;11.636;2023-09-30T09:56:10;5.75;;;1.98;;
79284;SDS011;68734;50.452;11.636;2023-09-30T09:58:37;5.82;;;2.08;;
79284;SDS011;68734;50.452;11.636;2023-09-30T10:01:06;4.38;;;1.85;;
79284;SDS011;68734;50.452;11.636;2023-09-30T10:03:31;5.45;;;1.98;;
79284;SDS011;68734;50.452;11.636;2023-09-30T10:05:58;4.30;;;1.60;;
79284;SDS011;68734;50.452;11.636;2023-09-30T10:08:42;2.95;;;1.77;;
79284;SDS011;68734;50.452;11.636;2023-09-30T10:11:22;6.35;;;1.80;;
79284;SDS011;68734;50.452;11.636;2023-09-30T10:13:51;5.13;;;1.67;;
79284;SDS011;68734;50.452;11.636;2023-09-30T10:19:09;3.83;;;1.83;;
79284;SDS011;68734;50.452;11.636;2023-09-30T10:21:35;4.95;;;2.05;;
79284;SDS011;68734;50.452;11.636;2023-09-30T10:29:59;4.13;;;1.83;;
79284;SDS011;68734;50.452;11.636;2023-09-30T10:38:39;3.92;;;1.45;;
79284;SDS011;68734;50.452;11.636;2023-09-30T10:40:52;5.60;;;1.67;;
79284;SDS011;68734;50.452;11.636;2023-09-30T10:46:49;6.18;;;1.75;;
79284;SDS011;68734;50.452;11.636;2023-09-30T10:48:51;3.13;;;1.50;;
79284;SDS011;68734;50.452;11.636;2023-09-30T10:51:17;5.90;;;1.90;;
79284;SDS011;68734;50.452;11.636;2023-09-30T10:53:47;3.40;;;1.35;;
79284;SDS011;68734;50.452;11.636;2023-09-30T10:56:13;3.75;;;1.55;;
79284;SDS011;68734;50.452;11.636;2023-09-30T10:58:48;6.00;;;2.10;;
79284;SDS011;68734;50.452;11.636;2023-09-30T11:01:16;3.08;;;1.30;;
79284;SDS011;68734;50.452;11.636;2023-09-30T11:03:43;3.72;;;1.40;;
79284;SDS011;68734;50.452;11.636;2023-09-30T11:06:12;4.85;;;1.70;;
79284;SDS011;68734;50.452;11.636;2023-09-30T11:08:44;4.30;;;1.95;;
79284;SDS011;68734;50.452;11.636;2023-09-30T11:11:12;5.47;;;1.80;;
79284;SDS011;68734;50.452;11.636;2023-09-30T11:13:39;3.50;;;1.08;;
79284;SDS011;68734;50.452;11.636;2023-09-30T11:16:05;4.28;;;1.60;;
79284;SDS011;68734;50.452;11.636;2023-09-30T11:18:31;3.42;;;0.98;;
79284;SDS011;68734;50.452;11.636;2023-09-30T11:21:07;4.47;;;1.15;;
79284;SDS011;68734;50.452;11.636;2023-09-30T11:23:35;2.67;;;1.33;;
79284;SDS011;68734;50.452;11.636;2023-09-30T11:26:02;3.90;;;1.25;;
79284;SDS011;68734;50.452;11.636;2023-09-30T11:28:41;4.32;;;1.10;;
79284;SDS011;68734;50.452;11.636;2023-09-30T11:31:12;5.40;;;2.60;;
79284;SDS011;68734;50.452;11.636;2023-09-30T11:33:51;4.18;;;1.40;;
79284;SDS011;68734;50.452;11.636;2023-09-30T11:36:18;6.03;;;1.80;;
79284;SDS011;68734;50.452;11.636;2023-09-30T11:38:47;3.13;;;1.40;;
79284;SDS011;68734;50.452;11.636;2023-09-30T11:41:16;5.65;;;1.10;;
79284;SDS011;68734;50.452;11.636;2023-09-30T11:44:06;3.00;;;1.60;;
79284;SDS011;68734;50.452;11.636;2023-09-30T11:46:57;1.85;;;1.13;;
79284;SDS011;68734;50.452;11.636;2023-09-30T11:51:49;4.17;;;1.40;;
79284;SDS011;68734;50.452;11.636;2023-09-30T11:54:15;3.53;;;1.45;;
79284;SDS011;68734;50.452;11.636;2023-09-30T11:56:41;4.15;;;1.50;;
79284;SDS011;68734;50.452;11.636;2023-09-30T11:59:09;7.38;;;1.85;;
79284;SDS011;68734;50.452;11.636;2023-09-30T12:01:37;3.70;;;0.82;;
79284;SDS011;68734;50.452;11.636;2023-09-30T12:04:03;4.68;;;1.23;;
79284;SDS011;68734;50.452;11.636;2023-09-30T12:06:29;2.47;;;1.05;;
79284;SDS011;68734;50.452;11.636;2023-09-30T12:08:55;7.45;;;1.33;;
79284;SDS011;68734;50.452;11.636;2023-09-30T12:11:20;3.03;;;1.05;;
79284;SDS011;68734;50.452;11.636;2023-09-30T12:13:48;6.90;;;1.20;;
79284;SDS011;68734;50.452;11.636;2023-09-30T12:16:15;3.45;;;1.00;;
79284;SDS011;68734;50.452;11.636;2023-09-30T12:18:44;3.85;;;1.38;;
79284;SDS011;68734;50.452;11.636;2023-09-30T12:21:10;3.00;;;1.23;;
79284;SDS011;68734;50.452;11.636;2023-09-30T12:23:38;3.78;;;2.22;;
79284;SDS011;68734;50.452;11.636;2023-09-30T12:26:04;4.63;;;1.30;;
79284;SDS011;68734;50.452;11.636;2023-09-30T12:28:34;2.40;;;1.00;;
79284;SDS011;68734;50.452;11.636;2023-09-30T12:31:00;2.35;;;1.10;;
79284;SDS011;68734;50.452;11.636;2023-09-30T12:33:30;2.85;;;1.25;;
79284;SDS011;68734;50.452;11.636;2023-09-30T12:35:59;3.38;;;0.93;;
79284;SDS011;68734;50.452;11.636;2023-09-30T12:38:24;3.47;;;1.20;;
79284;SDS011;68734;50.452;11.636;2023-09-30T12:40:56;2.10;;;1.20;;
79284;SDS011;68734;50.452;11.636;2023-09-30T12:43:25;5.80;;;1.13;;
79284;SDS011;68734;50.452;11.636;2023-09-30T12:45:50;2.60;;;0.82;;
79284;SDS011;68734;50.452;11.636;2023-09-30T12:48:18;5.32;;;1.27;;
79284;SDS011;68734;50.452;11.636;2023-09-30T12:50:44;5.88;;;1.23;;
79284;SDS011;68734;50.452;11.636;2023-09-30T12:53:10;2.80;;;1.17;;
79284;SDS011;68734;50.452;11.636;2023-09-30T12:55:35;6.15;;;1.40;;
79284;SDS011;68734;50.452;11.636;2023-09-30T12:58:01;2.63;;;0.85;;
79284;SDS011;68734;50.452;11.636;2023-09-30T13:00:27;4.70;;;1.63;;
79284;SDS011;68734;50.452;11.636;2023-09-30T13:02:55;3.47;;;1.40;;
79284;SDS011;68734;50.452;11.636;2023-09-30T13:05:23;4.40;;;1.38;;
79284;SDS011;68734;50.452;11.636;2023-09-30T13:07:50;2.50;;;0.98;;
79284;SDS011;68734;50.452;11.636;2023-09-30T13:10:18;4.38;;;1.27;;
79284;SDS011;68734;50.452;11.636;2023-09-30T13:12:47;2.33;;;1.33;;
79284;SDS011;68734;50.452;11.636;2023-09-30T13:15:14;4.97;;;1.30;;
79284;SDS011;68734;50.452;11.636;2023-09-30T13:17:40;3.17;;;1.42;;
79284;SDS011;68734;50.452;11.636;2023-09-30T13:20:06;3.22;;;1.40;;
79284;SDS011;68734;50.452;11.636;2023-09-30T13:22:34;6.30;;;1.27;;
79284;SDS011;68734;50.452;11.636;2023-09-30T13:25:03;4.45;;;1.60;;
79284;SDS011;68734;50.452;11.636;2023-09-30T13:27:33;3.80;;;1.20;;
79284;SDS011;68734;50.452;11.636;2023-09-30T13:29:59;6.30;;;1.38;;
79284;SDS011;68734;50.452;11.636;2023-09-30T13:32:27;1.65;;;0.95;;
79284;SDS011;68734;50.452;11.636;2023-09-30T13:34:53;3.15;;;1.20;;
79284;SDS011;68734;50.452;11.636;2023-09-30T13:37:19;2.90;;;1.30;;
79284;SDS011;68734;50.452;11.636;2023-09-30T13:39:45;5.00;;;1.50;;
79284;SDS011;68734;50.452;11.636;2023-09-30T13:42:10;4.40;;;1.27;;
79284;SDS011;68734;50.452;11.636;2023-09-30T13:44:36;3.35;;;1.23;;
79284;SDS011;68734;50.452;11.636;2023-09-30T13:47:01;2.90;;;1.05;;
79284;SDS011;68734;50.452;11.636;2023-09-30T13:49:27;3.03;;;1.20;;
79284;SDS011;68734;50.452;11.636;2023-09-30T13:51:53;4.38;;;0.98;;
79284;SDS011;68734;50.452;11.636;2023-09-30T13:54:23;4.20;;;1.10;;
79284;SDS011;68734;50.452;11.636;2023-09-30T13:56:49;3.65;;;1.20;;
79284;SDS011;68734;50.452;11.636;2023-09-30T13:59:14;4.13;;;1.17;;
79284;SDS011;68734;50.452;11.636;2023-09-30T14:01:40;3.95;;;1.42;;
79284;SDS011;68734;50.452;11.636;2023-09-30T14:04:06;7.68;;;1.30;;
79284;SDS011;68734;50.452;11.636;2023-09-30T14:06:32;2.83;;;1.38;;
79284;SDS011;68734;50.452;11.636;2023-09-30T14:08:58;3.97;;;1.15;;
79284;SDS011;68734;50.452;11.636;2023-09-30T14:11:23;3.53;;;1.10;;
79284;SDS011;68734;50.452;11.636;2023-09-30T14:13:49;3.80;;;1.02;;
79284;SDS011;68734;50.452;11.636;2023-09-30T14:16:14;3.33;;;1.20;;
79284;SDS011;68734;50.452;11.636;2023-09-30T14:18:42;4.30;;;1.20;;
79284;SDS011;68734;50.452;11.636;2023-09-30T14:21:08;2.53;;;1.10;;
79284;SDS011;68734;50.452;11.636;2023-09-30T14:23:33;5.22;;;1.50;;
79284;SDS011;68734;50.452;11.636;2023-09-30T14:26:01;5.45;;;1.58;;
79284;SDS011;68734;50.452;11.636;2023-09-30T14:28:36;3.65;;;1.60;;
79284;SDS011;68734;50.452;11.636;2023-09-30T14:31:04;2.55;;;1.00;;
79284;SDS011;68734;50.452;11.636;2023-09-30T14:33:30;2.55;;;0.85;;
79284;SDS011;68734;50.452;11.636;2023-09-30T14:35:56;1.73;;;1.17;;
79284;SDS011;68734;50.452;11.636;2023-09-30T14:38:24;2.92;;;1.27;;
79284;SDS011;68734;50.452;11.636;2023-09-30T14:40:50;2.78;;;0.85;;
79284;SDS011;68734;50.452;11.636;2023-09-30T14:43:16;5.38;;;1.13;;
79284;SDS011;68734;50.452;11.636;2023-09-30T14:45:41;6.53;;;1.75;;
79284;SDS011;68734;50.452;11.636;2023-09-30T14:48:07;4.15;;;1.10;;
79284;SDS011;68734;50.452;11.636;2023-09-30T14:50:34;1.52;;;0.95;;
79284;SDS011;68734;50.452;11.636;2023-09-30T14:53:01;2.63;;;1.17;;
79284;SDS011;68734;50.452;11.636;2023-09-30T14:55:27;4.38;;;1.40;;
79284;SDS011;68734;50.452;11.636;2023-09-30T14:57:57;2.42;;;1.10;;
79284;SDS011;68734;50.452;11.636;2023-09-30T15:00:25;1.80;;;0.80;;
79284;SDS011;68734;50.452;11.636;2023-09-30T15:02:51;2.58;;;1.08;;